createdAt,value
2022-08-22T00:00:13.484Z,5.53
2022-08-22T00:03:00.573Z,4.55
2022-08-22T00:03:02.026Z,4.65
2022-08-22T00:03:02.139Z,5.38
2022-08-22T00:03:07.954Z,5.50
2022-08-22T00:03:15.795Z,5.38
2022-08-22T00:05:39.323Z,6.10
2022-08-22T00:08:11.032Z,5.80
2022-08-22T00:10:45.854Z,6.03
2022-08-22T00:13:17.243Z,5.90
2022-08-22T00:15:49.635Z,6.13
2022-08-22T00:18:20.704Z,5.93
2022-08-22T00:20:54.110Z,5.93
2022-08-22T00:23:24.682Z,5.67
2022-08-22T00:25:56.583Z,5.47
2022-08-22T00:28:27.157Z,6.13
2022-08-22T00:30:59.900Z,5.70
2022-08-22T00:33:31.122Z,5.43
2022-08-22T00:36:07.079Z,5.60
2022-08-22T00:38:37.830Z,6.05
2022-08-22T00:41:09.473Z,5.30
2022-08-22T00:43:52.455Z,5.30
2022-08-22T00:46:37.420Z,5.80
2022-08-22T00:49:14.989Z,5.57
2022-08-22T00:52:01.033Z,5.38
2022-08-22T00:54:38.483Z,5.10
2022-08-22T00:57:18.344Z,5.50
2022-08-22T01:00:06.535Z,5.70
2022-08-22T01:02:42.889Z,5.77
2022-08-22T01:05:25.208Z,6.10
2022-08-22T01:08:02.292Z,5.90
2022-08-22T01:10:37.249Z,5.50
2022-08-22T01:13:14.002Z,5.40
2022-08-22T01:15:44.059Z,6.00
2022-08-22T01:18:30.356Z,6.13
2022-08-22T01:21:24.374Z,6.00
2022-08-22T01:24:11.526Z,6.00
2022-08-22T01:26:56.450Z,5.28
2022-08-22T01:29:47.317Z,5.20
2022-08-22T01:32:32.301Z,5.87
2022-08-22T01:35:18.212Z,5.80
2022-08-22T01:37:57.962Z,5.47
2022-08-22T01:40:47.574Z,5.40
2022-08-22T01:43:59.362Z,5.63
2022-08-22T01:46:26.550Z,6.67
2022-08-22T01:48:57.772Z,6.70
2022-08-22T01:51:32.455Z,5.60
2022-08-22T01:54:04.451Z,6.10
2022-08-22T01:56:35.962Z,5.37
2022-08-22T01:59:10.857Z,5.57
2022-08-22T02:01:54.960Z,6.30
2022-08-22T02:04:30.594Z,6.20
2022-08-22T02:07:04.613Z,6.90
2022-08-22T02:09:36.428Z,6.77
2022-08-22T02:12:21.705Z,6.07
2022-08-22T02:14:54.731Z,5.70
2022-08-22T02:17:24.811Z,5.67
2022-08-22T02:19:58.718Z,5.73
2022-08-22T02:22:44.311Z,5.77
2022-08-22T02:25:16.844Z,6.47
2022-08-22T02:27:52.838Z,6.33
2022-08-22T02:30:23.017Z,5.47
2022-08-22T02:32:56.137Z,5.77
2022-08-22T02:35:28.040Z,5.93
2022-08-22T02:38:01.035Z,5.63
2022-08-22T02:40:32.332Z,6.03
2022-08-22T02:43:04.652Z,5.77
2022-08-22T02:45:39.009Z,6.30
2022-08-22T02:48:13.201Z,6.27
2022-08-22T02:50:44.523Z,6.40
2022-08-22T02:53:18.993Z,5.70
2022-08-22T02:55:54.082Z,6.60
2022-08-22T02:58:26.134Z,6.47
2022-08-22T03:01:10.579Z,6.00
2022-08-22T03:03:40.012Z,6.50
2022-08-22T03:06:09.927Z,6.10
2022-08-22T03:08:42.921Z,5.97
2022-08-22T03:11:21.070Z,6.40
2022-08-22T03:13:54.413Z,6.63
2022-08-22T03:16:27.968Z,6.97
2022-08-22T03:18:58.555Z,6.93
2022-08-22T03:21:30.330Z,6.77
2022-08-22T03:24:03.301Z,6.43
2022-08-22T03:26:36.447Z,6.13
2022-08-22T03:29:07.688Z,6.33
2022-08-22T03:31:37.949Z,6.67
2022-08-22T03:34:22.221Z,6.57
2022-08-22T03:37:00.133Z,6.30
2022-08-22T03:39:40.804Z,6.93
2022-08-22T03:42:21.860Z,6.63
2022-08-22T03:45:12.673Z,5.70
2022-08-22T03:48:00.287Z,6.17
2022-08-22T03:50:45.580Z,5.60
2022-08-22T03:53:24.220Z,5.10
2022-08-22T03:56:25.826Z,6.10
2022-08-22T03:59:06.845Z,5.93
2022-08-22T04:01:53.305Z,5.87
2022-08-22T04:04:36.547Z,5.30
2022-08-22T04:07:28.173Z,5.93
2022-08-22T04:10:18.554Z,6.53
2022-08-22T04:13:01.461Z,6.03
2022-08-22T04:15:50.882Z,6.83
2022-08-22T04:18:29.322Z,6.07
2022-08-22T04:21:19.820Z,6.13
2022-08-22T04:24:03.960Z,6.30
2022-08-22T04:26:37.241Z,6.67
2022-08-22T04:29:08.338Z,6.50
2022-08-22T04:31:44.400Z,6.00
2022-08-22T04:34:16.920Z,6.27
2022-08-22T04:36:48.198Z,5.87
2022-08-22T04:39:18.752Z,6.87
2022-08-22T04:41:50.648Z,6.37
2022-08-22T04:44:21.279Z,5.47
2022-08-22T04:46:53.829Z,5.60
2022-08-22T04:49:24.888Z,6.13
2022-08-22T04:51:55.174Z,6.17
2022-08-22T04:54:31.790Z,6.33
2022-08-22T04:57:10.295Z,6.53
2022-08-22T04:59:38.815Z,6.13
2022-08-22T05:02:10.658Z,6.40
2022-08-22T05:04:40.946Z,6.90
2022-08-22T05:07:13.390Z,6.70
2022-08-22T05:09:44.599Z,5.67
2022-08-22T05:12:15.500Z,6.50
2022-08-22T05:14:45.302Z,6.73
2022-08-22T05:17:17.137Z,5.50
2022-08-22T05:19:50.564Z,5.80
2022-08-22T05:22:21.754Z,6.80
2022-08-22T05:24:51.237Z,6.00
2022-08-22T05:27:21.369Z,6.40
2022-08-22T05:29:57.520Z,6.23
2022-08-22T05:32:29.176Z,6.17
2022-08-22T05:34:59.948Z,6.80
2022-08-22T05:37:34.456Z,6.23
2022-08-22T05:40:03.576Z,6.40
2022-08-22T05:42:34.879Z,6.50
2022-08-22T05:45:04.640Z,6.90
2022-08-22T05:47:37.317Z,6.27
2022-08-22T05:50:07.191Z,7.20
2022-08-22T05:52:42.754Z,6.80
2022-08-22T05:55:18.581Z,6.87
2022-08-22T05:57:50.911Z,7.03
2022-08-22T06:00:21.732Z,7.20
2022-08-22T06:02:55.766Z,7.60
2022-08-22T06:05:26.780Z,6.30
2022-08-22T06:07:57.377Z,7.07
2022-08-22T06:10:28.090Z,6.75
2022-08-22T06:13:01.227Z,6.60
2022-08-22T06:15:32.079Z,6.30
2022-08-22T06:18:05.088Z,6.07
2022-08-22T06:20:35.268Z,6.97
2022-08-22T06:23:04.360Z,7.40
2022-08-22T06:25:34.216Z,6.63
2022-08-22T06:28:04.532Z,6.78
2022-08-22T06:30:33.656Z,7.47
2022-08-22T06:33:06.839Z,7.47
2022-08-22T06:36:00.518Z,8.18
2022-08-22T06:38:32.426Z,7.70
2022-08-22T06:41:02.264Z,8.20
2022-08-22T06:43:34.167Z,7.47
2022-08-22T06:46:02.735Z,8.05
2022-08-22T06:48:32.841Z,7.50
2022-08-22T06:51:01.997Z,7.15
2022-08-22T06:53:34.374Z,8.75
2022-08-22T06:56:05.731Z,8.50
2022-08-22T06:58:35.908Z,8.50
2022-08-22T07:01:11.716Z,9.05
2022-08-22T07:03:46.864Z,9.30
2022-08-22T07:06:16.401Z,8.07
2022-08-22T07:08:45.362Z,8.70
2022-08-22T07:11:17.393Z,9.13
2022-08-22T07:13:47.450Z,9.07
2022-08-22T07:16:18.317Z,8.35
2022-08-22T07:18:53.273Z,8.50
2022-08-22T07:21:26.171Z,8.68
2022-08-22T07:23:55.739Z,8.60
2022-08-22T07:26:29.603Z,8.35
2022-08-22T07:29:05.764Z,8.15
2022-08-22T07:31:39.870Z,7.78
2022-08-22T07:34:26.142Z,7.22
2022-08-22T07:36:58.282Z,7.50
2022-08-22T07:39:28.982Z,6.78
2022-08-22T07:42:04.362Z,6.28
2022-08-22T07:44:35.260Z,6.72
2022-08-22T07:47:07.263Z,6.18
2022-08-22T07:49:38.718Z,6.30
2022-08-22T07:52:14.741Z,5.50
2022-08-22T07:54:47.156Z,4.55
2022-08-22T07:57:16.957Z,4.80
2022-08-22T07:59:49.738Z,5.20
2022-08-22T08:02:19.396Z,4.28
2022-08-22T08:04:50.864Z,4.50
2022-08-22T08:07:21.350Z,4.22
2022-08-22T08:09:51.832Z,4.13
2022-08-22T08:12:22.007Z,3.67
2022-08-22T08:14:53.839Z,3.72
2022-08-22T08:17:24.043Z,3.47
2022-08-22T08:19:54.348Z,3.47
2022-08-22T08:22:26.363Z,3.22
2022-08-22T08:24:56.257Z,2.80
2022-08-22T08:27:44.040Z,3.22
2022-08-22T08:30:18.430Z,2.90
2022-08-22T08:32:49.875Z,2.60
2022-08-22T08:35:25.396Z,2.80
2022-08-22T08:37:56.198Z,2.47
2022-08-22T08:40:48.505Z,2.40
2022-08-22T08:43:34.307Z,2.15
2022-08-22T08:46:16.769Z,2.30
2022-08-22T08:49:06.343Z,2.70
2022-08-22T08:51:48.607Z,2.92
2022-08-22T08:54:39.072Z,2.33
2022-08-22T08:57:13.559Z,2.22
2022-08-22T08:59:46.370Z,2.05
2022-08-22T09:02:34.946Z,2.40
2022-08-22T09:05:13.577Z,2.38
2022-08-22T09:08:02.554Z,2.30
2022-08-22T09:10:47.541Z,2.50
2022-08-22T09:13:29.026Z,1.90
2022-08-22T09:16:09.953Z,2.40
2022-08-22T09:19:02.377Z,2.30
2022-08-22T09:21:54.708Z,2.20
2022-08-22T09:24:38.753Z,2.50
2022-08-22T09:27:15.999Z,2.50
2022-08-22T09:29:54.724Z,2.38
2022-08-22T09:32:29.864Z,2.38
2022-08-22T09:35:02.146Z,2.22
2022-08-22T09:37:35.941Z,2.17
2022-08-22T09:40:13.355Z,2.30
2022-08-22T09:42:48.079Z,2.40
2022-08-22T09:45:33.618Z,2.15
2022-08-22T09:48:07.311Z,2.10
2022-08-22T09:50:44.740Z,2.00
2022-08-22T09:53:22.301Z,2.38
2022-08-22T09:55:55.289Z,1.90
2022-08-22T09:58:28.543Z,2.30
2022-08-22T10:00:59.630Z,2.22
2022-08-22T10:03:34.104Z,2.60
2022-08-22T10:06:09.120Z,2.10
2022-08-22T10:08:46.084Z,2.63
2022-08-22T10:11:25.815Z,2.20
2022-08-22T10:14:00.516Z,2.20
2022-08-22T10:16:52.925Z,2.13
2022-08-22T10:19:25.064Z,2.50
2022-08-22T10:22:13.329Z,2.50
2022-08-22T10:24:45.506Z,2.13
2022-08-22T10:27:17.956Z,2.50
2022-08-22T10:29:55.988Z,2.20
2022-08-22T10:32:30.941Z,2.53
2022-08-22T10:35:03.351Z,2.40
2022-08-22T10:37:39.507Z,2.35
2022-08-22T10:40:12.134Z,2.50
2022-08-22T10:42:44.032Z,2.58
2022-08-22T10:45:23.727Z,2.63
2022-08-22T10:48:23.354Z,2.40
2022-08-22T10:50:52.608Z,2.38
2022-08-22T10:53:34.785Z,2.33
2022-08-22T10:56:11.221Z,2.17
2022-08-22T10:58:44.077Z,2.08
2022-08-22T11:01:41.089Z,2.35
2022-08-22T11:04:06.677Z,2.20
2022-08-22T11:06:39.249Z,2.10
2022-08-22T11:09:17.084Z,2.42
2022-08-22T11:11:47.570Z,2.20
2022-08-22T11:14:29.185Z,2.25
2022-08-22T11:17:00.218Z,2.10
2022-08-22T11:19:39.581Z,2.03
2022-08-22T11:22:12.155Z,1.88
2022-08-22T11:24:59.399Z,1.80
2022-08-22T11:27:39.756Z,2.63
2022-08-22T11:30:18.126Z,2.35
2022-08-22T11:33:07.486Z,2.08
2022-08-22T11:35:39.924Z,2.20
2022-08-22T11:38:17.942Z,2.17
2022-08-22T11:40:48.529Z,1.95
2022-08-22T11:43:32.523Z,2.00
2022-08-22T11:46:19.984Z,2.10
2022-08-22T11:48:57.050Z,2.40
2022-08-22T11:51:34.324Z,2.20
2022-08-22T11:54:09.819Z,2.22
2022-08-22T11:56:41.840Z,2.25
2022-08-22T11:59:19.727Z,2.10
2022-08-22T12:01:53.497Z,2.20
2022-08-22T12:04:29.769Z,2.00
2022-08-22T12:07:03.445Z,2.10
2022-08-22T12:09:35.928Z,2.00
2022-08-22T12:12:24.794Z,2.00
2022-08-22T12:14:58.175Z,2.00
2022-08-22T12:17:55.065Z,2.10
2022-08-22T12:20:35.793Z,2.35
2022-08-22T12:23:18.095Z,2.40
2022-08-22T12:26:03.447Z,1.92
2022-08-22T12:28:34.618Z,2.03
2022-08-22T12:31:08.992Z,2.20
2022-08-22T12:33:50.875Z,2.28
2022-08-22T12:36:27.061Z,2.10
2022-08-22T12:39:13.152Z,2.30
2022-08-22T12:42:04.151Z,2.10
2022-08-22T12:44:39.020Z,2.08
2022-08-22T12:47:18.918Z,1.52
2022-08-22T12:50:02.927Z,2.10
2022-08-22T12:52:38.675Z,1.80
2022-08-22T12:55:19.874Z,1.60
2022-08-22T12:58:00.860Z,2.10
2022-08-22T13:00:32.777Z,2.05
2022-08-22T13:03:04.851Z,1.30
2022-08-22T13:05:38.366Z,1.90
2022-08-22T13:08:12.721Z,1.60
2022-08-22T13:10:46.846Z,1.70
2022-08-22T13:13:17.613Z,2.00
2022-08-22T13:16:00.410Z,1.90
2022-08-22T13:18:33.509Z,2.05
2022-08-22T13:21:05.947Z,1.92
2022-08-22T13:23:39.933Z,1.83
2022-08-22T13:26:12.672Z,1.80
2022-08-22T13:29:22.037Z,1.52
2022-08-22T13:31:46.317Z,1.88
2022-08-22T13:34:28.871Z,1.50
2022-08-22T13:37:00.362Z,1.60
2022-08-22T13:39:34.684Z,1.60
2022-08-22T13:42:07.653Z,1.70
2022-08-22T13:44:44.956Z,1.65
2022-08-22T13:47:16.050Z,1.73
2022-08-22T13:49:46.992Z,1.50
2022-08-22T13:52:30.057Z,1.50
2022-08-22T13:55:01.498Z,1.90
2022-08-22T13:57:34.773Z,1.50
2022-08-22T14:00:09.757Z,1.60
2022-08-22T14:03:00.802Z,1.40
2022-08-22T14:05:37.462Z,1.15
2022-08-22T14:08:15.253Z,1.50
2022-08-22T14:10:55.227Z,1.48
2022-08-22T14:13:40.088Z,1.50
2022-08-22T14:16:12.818Z,1.50
2022-08-22T14:18:50.135Z,1.50
2022-08-22T14:21:33.473Z,1.73
2022-08-22T14:24:12.711Z,1.60
2022-08-22T14:26:51.419Z,1.50
2022-08-22T14:29:21.523Z,1.50
2022-08-22T14:32:00.932Z,1.30
2022-08-22T14:34:30.622Z,1.40
2022-08-22T14:37:01.124Z,1.40
2022-08-22T14:39:32.017Z,1.60
2022-08-22T14:42:10.885Z,1.30
2022-08-22T14:44:44.139Z,1.60
2022-08-22T14:47:51.066Z,1.40
2022-08-22T14:50:11.260Z,1.40
2022-08-22T14:52:41.287Z,1.35
2022-08-22T14:55:13.139Z,1.35
2022-08-22T14:57:46.107Z,1.08
2022-08-22T15:00:26.152Z,1.40
2022-08-22T15:03:09.505Z,1.20
2022-08-22T15:05:49.721Z,1.20
2022-08-22T15:08:24.296Z,1.55
2022-08-22T15:11:11.471Z,1.30
2022-08-22T15:13:51.100Z,1.25
2022-08-22T15:16:22.149Z,1.77
2022-08-22T15:18:51.728Z,1.27
2022-08-22T15:21:24.511Z,1.20
2022-08-22T15:23:54.771Z,1.52
2022-08-22T15:26:28.745Z,1.15
2022-08-22T15:29:02.894Z,1.60
2022-08-22T15:31:33.390Z,1.40
2022-08-22T15:34:10.006Z,1.40
2022-08-22T15:36:58.388Z,1.30
2022-08-22T15:39:29.622Z,1.27
2022-08-22T15:41:58.892Z,1.50
2022-08-22T15:44:33.519Z,1.45
2022-08-22T15:47:04.913Z,1.17
2022-08-22T15:49:36.585Z,1.33
2022-08-22T15:52:16.843Z,1.05
2022-08-22T15:55:01.746Z,1.30
2022-08-22T15:57:34.947Z,1.60
2022-08-22T16:00:12.190Z,1.23
2022-08-22T16:02:42.421Z,1.23
2022-08-22T16:05:25.313Z,1.20
2022-08-22T16:08:02.818Z,1.40
2022-08-22T16:10:33.117Z,1.35
2022-08-22T16:13:15.340Z,1.40
2022-08-22T16:16:00.168Z,1.35
2022-08-22T16:18:47.293Z,1.48
2022-08-22T16:21:16.150Z,1.40
2022-08-22T16:24:02.230Z,1.73
2022-08-22T16:26:39.675Z,1.45
2022-08-22T16:29:26.468Z,1.40
2022-08-22T16:32:00.970Z,1.40
2022-08-22T16:34:43.941Z,1.70
2022-08-22T16:37:32.777Z,1.60
2022-08-22T16:40:14.636Z,1.42
2022-08-22T16:42:46.377Z,1.60
2022-08-22T16:45:20.788Z,1.38
2022-08-22T16:47:52.728Z,1.70
2022-08-22T16:50:32.973Z,1.60
2022-08-22T16:53:02.956Z,1.80
2022-08-22T16:55:58.377Z,1.50
2022-08-22T16:58:56.645Z,1.70
2022-08-22T17:01:32.700Z,1.50
2022-08-22T17:04:08.115Z,1.58
2022-08-22T17:06:45.621Z,1.70
2022-08-22T17:09:22.119Z,1.55
2022-08-22T17:11:56.747Z,1.40
2022-08-22T17:14:43.979Z,1.48
2022-08-22T17:17:18.455Z,1.70
2022-08-22T17:19:54.954Z,1.50
2022-08-22T17:22:29.154Z,1.40
2022-08-22T17:25:04.622Z,1.60
2022-08-22T17:27:35.996Z,1.50
2022-08-22T17:30:09.233Z,1.52
2022-08-22T17:32:43.016Z,1.60
2022-08-22T17:35:19.579Z,1.20
2022-08-22T17:37:55.679Z,1.38
2022-08-22T17:40:33.214Z,1.55
2022-08-22T17:43:11.254Z,1.50
2022-08-22T17:45:47.978Z,1.50
2022-08-22T17:48:20.264Z,1.90
2022-08-22T17:50:52.872Z,1.70
2022-08-22T17:53:29.654Z,1.30
2022-08-22T17:56:02.113Z,1.42
2022-08-22T17:58:43.378Z,1.60
2022-08-22T18:01:15.446Z,1.40
2022-08-22T18:03:47.900Z,1.42
2022-08-22T18:06:22.215Z,1.40
2022-08-22T18:11:46.919Z,1.52
2022-08-22T18:14:23.469Z,1.30
2022-08-22T18:16:52.533Z,1.40
2022-08-22T18:19:34.709Z,1.50
2022-08-22T18:22:07.878Z,1.35
2022-08-22T18:24:40.120Z,1.50
2022-08-22T18:27:10.550Z,1.20
2022-08-22T18:30:02.194Z,1.25
2022-08-22T18:32:32.999Z,1.33
2022-08-22T18:35:05.076Z,1.67
2022-08-22T18:37:50.808Z,1.60
2022-08-22T18:40:26.817Z,1.40
2022-08-22T18:42:58.906Z,1.50
2022-08-22T18:45:44.064Z,1.40
2022-08-22T18:48:19.719Z,1.20
2022-08-22T18:50:48.381Z,1.42
2022-08-22T18:53:31.670Z,1.55
2022-08-22T18:56:03.974Z,1.30
2022-08-22T18:58:39.979Z,1.63
2022-08-22T19:01:17.576Z,1.20
2022-08-22T19:03:53.281Z,1.50
2022-08-22T19:06:44.709Z,1.30
2022-08-22T19:09:27.305Z,1.42
2022-08-22T19:12:03.311Z,1.35
2022-08-22T19:14:42.357Z,1.50
2022-08-22T19:17:22.396Z,1.30
2022-08-22T19:20:13.986Z,1.13
2022-08-22T19:22:42.918Z,1.50
2022-08-22T19:25:13.578Z,1.58
2022-08-22T19:27:44.687Z,1.30
2022-08-22T19:30:31.700Z,1.23
2022-08-22T19:33:02.080Z,1.13
2022-08-22T19:35:37.165Z,1.40
2022-08-22T19:38:07.286Z,1.40
2022-08-22T19:40:49.377Z,1.60
2022-08-22T19:43:25.917Z,1.48
2022-08-22T19:45:55.844Z,1.55
2022-08-22T19:48:25.854Z,1.33
2022-08-22T19:51:08.271Z,1.70
2022-08-22T19:53:41.753Z,1.50
2022-08-22T19:56:14.289Z,1.40
2022-08-22T19:58:53.350Z,1.27
2022-08-22T20:01:35.687Z,1.80
2022-08-22T20:04:09.235Z,1.63
2022-08-22T20:06:44.494Z,1.65
2022-08-22T20:09:19.263Z,1.80
2022-08-22T20:11:50.721Z,1.95
2022-08-22T20:14:30.569Z,2.03
2022-08-22T20:17:03.380Z,1.77
2022-08-22T20:19:40.076Z,1.88
2022-08-22T20:22:11.630Z,1.80
2022-08-22T20:24:46.989Z,1.73
2022-08-22T20:27:17.790Z,1.70
2022-08-22T20:29:53.231Z,1.80
2022-08-22T20:32:23.532Z,1.50
2022-08-22T20:34:55.268Z,1.60
2022-08-22T20:37:50.658Z,1.80
2022-08-22T20:40:25.850Z,1.60
2022-08-22T20:43:11.674Z,1.60
2022-08-22T20:45:49.558Z,2.03
2022-08-22T20:48:18.256Z,1.92
2022-08-22T20:50:46.656Z,2.08
2022-08-22T20:53:19.038Z,1.70
2022-08-22T20:55:54.727Z,2.03
2022-08-22T20:58:25.184Z,1.60
2022-08-22T21:01:00.132Z,1.88
2022-08-22T21:03:37.074Z,1.88
2022-08-22T21:06:13.216Z,2.00
2022-08-22T21:08:42.193Z,2.10
2022-08-22T21:11:29.240Z,1.88
2022-08-22T21:13:59.280Z,1.98
2022-08-22T21:16:32.009Z,2.20
2022-08-22T21:19:02.008Z,1.98
2022-08-22T21:21:31.451Z,1.90
2022-08-22T21:24:01.279Z,1.52
2022-08-22T21:26:30.881Z,1.52
2022-08-22T21:29:00.813Z,1.73
2022-08-22T21:31:31.821Z,1.80
2022-08-22T21:34:01.070Z,1.50
2022-08-22T21:36:31.183Z,1.50
2022-08-22T21:39:00.963Z,1.73
2022-08-22T21:41:33.663Z,1.60
2022-08-22T21:44:16.902Z,2.00
2022-08-22T21:46:47.010Z,1.70
2022-08-22T21:49:22.422Z,1.65
2022-08-22T21:51:51.487Z,1.60
2022-08-22T21:54:24.898Z,1.75
2022-08-22T21:56:54.552Z,1.70
2022-08-22T21:59:25.053Z,1.80
2022-08-22T22:01:55.467Z,1.63
2022-08-22T22:04:24.143Z,1.50
2022-08-22T22:06:52.595Z,1.92
2022-08-22T22:09:20.976Z,1.80
2022-08-22T22:11:50.424Z,1.80
2022-08-22T22:14:18.781Z,2.00
2022-08-22T22:16:47.420Z,1.80
2022-08-22T22:19:17.255Z,1.90
2022-08-22T22:21:45.846Z,2.00
2022-08-22T22:24:14.335Z,1.98
2022-08-22T22:26:42.693Z,1.90
2022-08-22T22:29:11.096Z,1.50
2022-08-22T22:31:39.431Z,2.10
2022-08-22T22:34:07.827Z,1.90
2022-08-22T22:36:37.668Z,2.07
2022-08-22T22:39:06.067Z,2.30
2022-08-22T22:41:34.600Z,1.90
2022-08-22T22:44:03.243Z,1.80
2022-08-22T22:46:31.650Z,2.10
2022-08-22T22:49:00.391Z,2.00
2022-08-22T22:51:28.906Z,2.03
2022-08-22T22:53:59.181Z,2.17
2022-08-22T22:56:28.073Z,1.87
2022-08-22T22:59:12.565Z,2.10
2022-08-22T23:02:00.932Z,2.10
2022-08-22T23:04:29.457Z,1.70
2022-08-22T23:06:57.829Z,2.60
2022-08-22T23:09:38.116Z,2.10
2022-08-22T23:12:07.803Z,2.10
2022-08-22T23:14:36.558Z,2.20
2022-08-22T23:17:05.730Z,2.60
2022-08-22T23:19:36.153Z,2.30
2022-08-22T23:22:04.503Z,2.30
2022-08-22T23:24:35.825Z,2.10
2022-08-22T23:27:04.268Z,2.37
2022-08-22T23:29:32.986Z,2.10
2022-08-22T23:32:03.194Z,2.33
2022-08-22T23:34:36.280Z,2.10
2022-08-22T23:37:08.882Z,2.40
2022-08-22T23:39:39.181Z,2.60
2022-08-22T23:42:08.258Z,2.47
2022-08-22T23:44:37.622Z,2.80
2022-08-22T23:47:06.864Z,2.50
2022-08-22T23:49:36.228Z,2.73
2022-08-22T23:52:05.308Z,2.87
2022-08-22T23:54:34.206Z,2.63
2022-08-22T23:57:11.899Z,2.57
2022-08-22T23:59:48.038Z,2.97
